createdAt,value
2022-07-25T00:00:11.728Z,5.40
2022-07-25T00:02:38.799Z,5.90
2022-07-25T00:05:07.037Z,5.30
2022-07-25T00:07:33.989Z,5.53
2022-07-25T00:10:01.751Z,5.33
2022-07-25T00:12:28.901Z,5.70
2022-07-25T00:14:56.614Z,5.80
2022-07-25T00:17:27.293Z,5.60
2022-07-25T00:19:56.104Z,5.53
2022-07-25T00:22:24.503Z,6.17
2022-07-25T00:24:52.944Z,5.57
2022-07-25T00:27:20.480Z,5.83
2022-07-25T00:29:48.261Z,5.53
2022-07-25T00:32:15.752Z,5.33
2022-07-25T00:34:43.922Z,5.67
2022-07-25T00:37:11.310Z,5.93
2022-07-25T00:39:39.912Z,5.90
2022-07-25T00:42:07.618Z,6.10
2022-07-25T00:44:35.576Z,6.07
2022-07-25T00:47:03.202Z,6.13
2022-07-25T00:49:30.652Z,5.97
2022-07-25T00:51:59.062Z,5.70
2022-07-25T00:54:26.734Z,5.73
2022-07-25T00:56:55.361Z,6.23
2022-07-25T00:59:23.603Z,6.20
2022-07-25T01:01:52.190Z,5.60
2022-07-25T01:04:20.306Z,6.07
2022-07-25T01:06:48.090Z,5.90
2022-07-25T01:09:19.336Z,5.63
2022-07-25T01:11:46.814Z,5.77
2022-07-25T01:14:14.413Z,5.97
2022-07-25T01:16:42.002Z,5.90
2022-07-25T01:19:10.201Z,6.13
2022-07-25T01:21:39.910Z,6.30
2022-07-25T01:24:09.253Z,6.00
2022-07-25T01:26:39.003Z,6.03
2022-07-25T01:29:07.231Z,6.47
2022-07-25T01:31:38.285Z,6.53
2022-07-25T01:34:06.962Z,5.50
2022-07-25T01:36:35.222Z,5.63
2022-07-25T01:39:07.894Z,5.80
2022-07-25T01:41:36.269Z,5.90
2022-07-25T01:44:04.585Z,6.40
2022-07-25T01:46:32.264Z,5.90
2022-07-25T01:49:00.816Z,6.37
2022-07-25T01:51:29.489Z,6.20
2022-07-25T01:53:57.325Z,6.20
2022-07-25T01:56:25.913Z,6.03
2022-07-25T01:58:53.485Z,6.30
2022-07-25T02:01:21.833Z,6.30
2022-07-25T02:03:49.654Z,6.10
2022-07-25T02:06:21.090Z,6.97
2022-07-25T02:08:49.113Z,6.80
2022-07-25T02:11:17.712Z,6.43
2022-07-25T02:13:47.633Z,6.20
2022-07-25T02:16:18.754Z,5.80
2022-07-25T02:18:46.221Z,6.37
2022-07-25T02:21:15.188Z,6.00
2022-07-25T02:23:45.181Z,6.10
2022-07-25T02:26:13.394Z,6.37
2022-07-25T02:28:44.951Z,6.00
2022-07-25T02:31:12.627Z,6.70
2022-07-25T02:33:40.016Z,6.47
2022-07-25T02:36:08.797Z,6.03
2022-07-25T02:38:36.419Z,6.60
2022-07-25T02:41:04.598Z,6.17
2022-07-25T02:43:35.382Z,6.63
2022-07-25T02:46:03.207Z,6.20
2022-07-25T02:48:30.852Z,6.30
2022-07-25T02:50:58.841Z,6.40
2022-07-25T02:53:47.207Z,6.47
2022-07-25T02:56:15.802Z,6.40
2022-07-25T02:58:44.885Z,6.87
2022-07-25T03:01:13.942Z,6.57
2022-07-25T03:03:41.843Z,6.07
2022-07-25T03:06:10.114Z,6.67
2022-07-25T03:08:38.334Z,6.30
2022-07-25T03:11:07.552Z,6.10
2022-07-25T03:13:38.310Z,6.33
2022-07-25T03:16:07.012Z,6.27
2022-07-25T03:18:35.951Z,5.90
2022-07-25T03:21:06.662Z,6.70
2022-07-25T03:23:35.604Z,5.67
2022-07-25T03:26:10.048Z,5.90
2022-07-25T03:28:38.829Z,6.97
2022-07-25T03:31:07.734Z,5.80
2022-07-25T03:33:35.705Z,5.97
2022-07-25T03:36:04.664Z,6.10
2022-07-25T03:38:33.054Z,6.43
2022-07-25T03:41:01.039Z,6.00
2022-07-25T03:43:31.437Z,6.27
2022-07-25T03:46:03.024Z,6.77
2022-07-25T03:48:37.227Z,6.70
2022-07-25T03:51:07.202Z,6.47
2022-07-25T03:53:56.088Z,6.33
2022-07-25T03:56:24.866Z,6.40
2022-07-25T03:58:52.255Z,6.53
2022-07-25T04:01:21.113Z,6.27
2022-07-25T04:03:49.869Z,6.43
2022-07-25T04:06:17.377Z,6.23
2022-07-25T04:08:45.234Z,6.60
2022-07-25T04:11:13.017Z,6.33
2022-07-25T04:13:40.535Z,6.50
2022-07-25T04:16:11.602Z,6.30
2022-07-25T04:18:43.690Z,6.60
2022-07-25T04:21:14.293Z,7.20
2022-07-25T04:23:42.496Z,5.93
2022-07-25T04:26:16.902Z,5.90
2022-07-25T04:28:45.175Z,6.30
2022-07-25T04:31:13.299Z,6.87
2022-07-25T04:33:41.930Z,6.10
2022-07-25T04:36:12.831Z,6.47
2022-07-25T04:38:43.653Z,6.10
2022-07-25T04:41:11.814Z,5.77
2022-07-25T04:43:39.204Z,6.10
2022-07-25T04:46:06.804Z,6.07
2022-07-25T04:48:34.509Z,6.10
2022-07-25T04:51:02.950Z,6.27
2022-07-25T04:53:30.993Z,6.10
2022-07-25T04:55:58.465Z,6.30
2022-07-25T04:58:25.829Z,6.43
2022-07-25T05:00:54.959Z,6.07
2022-07-25T05:03:24.331Z,6.23
2022-07-25T05:05:53.015Z,6.10
2022-07-25T05:08:20.752Z,6.17
2022-07-25T05:10:48.115Z,5.70
2022-07-25T05:13:16.527Z,6.00
2022-07-25T05:15:44.455Z,5.77
2022-07-25T05:18:12.663Z,5.90
2022-07-25T05:20:40.495Z,5.20
2022-07-25T05:23:08.798Z,5.53
2022-07-25T05:25:36.913Z,5.77
2022-07-25T05:28:05.396Z,5.87
2022-07-25T05:30:39.355Z,5.53
2022-07-25T05:33:08.107Z,6.00
2022-07-25T05:35:36.593Z,5.50
2022-07-25T05:38:05.405Z,5.73
2022-07-25T05:40:34.575Z,5.70
2022-07-25T05:43:03.897Z,5.60
2022-07-25T05:45:33.028Z,5.93
2022-07-25T05:48:29.937Z,5.67
2022-07-25T05:50:59.655Z,5.80
2022-07-25T05:53:27.324Z,5.50
2022-07-25T05:55:55.808Z,5.97
2022-07-25T05:58:29.138Z,5.60
2022-07-25T06:00:58.814Z,6.10
2022-07-25T06:03:26.938Z,5.37
2022-07-25T06:05:56.494Z,5.40
2022-07-25T06:08:24.119Z,5.63
2022-07-25T06:10:53.167Z,5.53
2022-07-25T06:13:21.844Z,5.97
2022-07-25T06:15:55.480Z,5.43
2022-07-25T06:18:23.626Z,5.67
2022-07-25T06:20:50.713Z,5.38
2022-07-25T06:23:20.641Z,5.43
2022-07-25T06:25:50.457Z,4.72
2022-07-25T06:28:18.478Z,4.97
2022-07-25T06:30:46.276Z,5.40
2022-07-25T06:33:16.013Z,5.15
2022-07-25T06:35:44.597Z,5.15
2022-07-25T06:38:12.088Z,5.32
2022-07-25T06:40:41.646Z,4.78
2022-07-25T06:43:09.216Z,4.80
2022-07-25T06:45:36.604Z,4.72
2022-07-25T06:48:04.388Z,4.88
2022-07-25T06:50:31.790Z,4.60
2022-07-25T06:52:59.217Z,5.18
2022-07-25T06:55:27.026Z,5.07
2022-07-25T06:57:54.759Z,5.15
2022-07-25T07:00:21.985Z,5.28
2022-07-25T07:02:58.441Z,4.80
2022-07-25T07:05:30.025Z,4.82
2022-07-25T07:08:00.434Z,5.25
2022-07-25T07:10:28.394Z,5.35
2022-07-25T07:13:13.615Z,5.75
2022-07-25T07:15:49.607Z,5.35
2022-07-25T07:18:19.195Z,4.90
2022-07-25T07:20:47.424Z,4.75
2022-07-25T07:23:17.845Z,5.38
2022-07-25T07:25:48.074Z,5.10
2022-07-25T07:28:16.234Z,4.80
2022-07-25T07:34:24.599Z,4.47
2022-07-25T07:36:53.292Z,5.05
2022-07-25T07:39:20.980Z,4.45
2022-07-25T07:41:47.912Z,4.82
2022-07-25T07:44:14.923Z,4.78
2022-07-25T07:46:42.147Z,4.78
2022-07-25T07:49:09.770Z,4.45
2022-07-25T07:51:37.988Z,4.45
2022-07-25T07:54:34.578Z,4.43
2022-07-25T07:57:01.715Z,5.20
2022-07-25T07:59:28.750Z,4.90
2022-07-25T08:01:57.025Z,4.35
2022-07-25T08:04:24.397Z,4.93
2022-07-25T08:06:54.054Z,4.78
2022-07-25T08:09:21.106Z,4.97
2022-07-25T08:11:49.786Z,5.22
2022-07-25T08:14:16.866Z,4.63
2022-07-25T08:16:43.831Z,5.10
2022-07-25T08:19:11.855Z,5.05
2022-07-25T08:21:39.584Z,5.22
2022-07-25T08:24:07.324Z,4.70
2022-07-25T08:26:37.273Z,4.93
2022-07-25T08:29:18.884Z,5.03
2022-07-25T08:31:47.236Z,4.80
2022-07-25T08:34:22.398Z,5.05
2022-07-25T08:36:49.816Z,5.28
2022-07-25T08:39:20.536Z,5.28
2022-07-25T08:41:47.650Z,5.18
2022-07-25T08:44:16.019Z,4.95
2022-07-25T08:46:43.636Z,4.90
2022-07-25T08:49:11.260Z,5.47
2022-07-25T08:51:40.188Z,5.28
2022-07-25T08:54:07.655Z,5.10
2022-07-25T08:56:35.764Z,5.25
2022-07-25T08:59:03.812Z,4.82
2022-07-25T09:01:34.898Z,4.95
2022-07-25T09:04:03.901Z,5.38
2022-07-25T09:06:31.354Z,5.10
2022-07-25T09:09:01.169Z,5.20
2022-07-25T09:11:32.783Z,5.25
2022-07-25T09:14:02.921Z,5.15
2022-07-25T09:16:34.849Z,5.20
2022-07-25T09:19:11.968Z,4.93
2022-07-25T09:21:40.429Z,4.90
2022-07-25T09:24:18.958Z,4.88
2022-07-25T09:26:50.964Z,5.45
2022-07-25T09:29:29.416Z,4.88
2022-07-25T09:31:59.376Z,4.72
2022-07-25T09:34:38.092Z,4.78
2022-07-25T09:37:12.405Z,4.88
2022-07-25T09:39:46.496Z,4.97
2022-07-25T09:42:19.745Z,5.10
2022-07-25T09:45:15.270Z,5.32
2022-07-25T09:48:12.035Z,4.90
2022-07-25T09:50:39.107Z,5.50
2022-07-25T09:53:06.378Z,5.30
2022-07-25T09:55:33.686Z,4.90
2022-07-25T09:58:00.962Z,5.30
2022-07-25T10:00:29.316Z,5.07
2022-07-25T10:03:16.418Z,5.15
2022-07-25T10:06:03.588Z,5.05
2022-07-25T10:08:37.060Z,5.05
2022-07-25T10:11:06.775Z,4.72
2022-07-25T10:13:35.648Z,5.60
2022-07-25T10:16:04.224Z,5.25
2022-07-25T10:18:32.077Z,5.00
2022-07-25T10:21:25.094Z,5.60
2022-07-25T10:24:07.906Z,5.25
2022-07-25T10:26:40.302Z,5.57
2022-07-25T10:29:11.919Z,5.30
2022-07-25T10:31:50.275Z,13.13
2022-07-25T10:34:33.738Z,6.17
2022-07-25T10:37:15.521Z,6.00
2022-07-25T10:39:48.863Z,5.60
2022-07-25T10:42:18.106Z,5.80
2022-07-25T10:44:48.556Z,5.00
2022-07-25T10:47:17.165Z,5.47
2022-07-25T10:50:13.861Z,5.03
2022-07-25T10:52:42.003Z,5.40
2022-07-25T10:55:11.067Z,4.90
2022-07-25T10:57:45.322Z,4.70
2022-07-25T11:00:22.320Z,4.23
2022-07-25T11:02:50.274Z,4.67
2022-07-25T11:05:18.637Z,4.77
2022-07-25T11:08:18.936Z,4.70
2022-07-25T11:10:40.597Z,4.60
2022-07-25T11:13:16.310Z,4.60
2022-07-25T11:15:44.273Z,4.40
2022-07-25T11:18:12.249Z,4.10
2022-07-25T11:21:06.593Z,4.90
2022-07-25T11:23:35.047Z,4.70
2022-07-25T11:26:07.030Z,5.68
2022-07-25T11:28:52.873Z,5.57
2022-07-25T11:31:28.826Z,5.70
2022-07-25T11:34:00.104Z,4.25
2022-07-25T11:36:27.498Z,5.10
2022-07-25T11:38:54.777Z,4.47
2022-07-25T11:41:33.829Z,4.53
2022-07-25T11:44:00.994Z,3.63
2022-07-25T11:46:28.172Z,3.60
2022-07-25T11:49:06.104Z,3.95
2022-07-25T11:51:37.812Z,4.05
2022-07-25T11:54:11.503Z,4.13
2022-07-25T11:56:42.914Z,3.85
2022-07-25T11:59:11.668Z,3.22
2022-07-25T12:01:47.770Z,3.28
2022-07-25T12:04:17.813Z,3.50
2022-07-25T12:06:47.465Z,3.78
2022-07-25T12:09:22.187Z,3.50
2022-07-25T12:11:50.026Z,3.13
2022-07-25T12:14:18.405Z,3.20
2022-07-25T12:16:45.748Z,3.35
2022-07-25T12:19:20.999Z,3.20
2022-07-25T12:21:48.809Z,3.33
2022-07-25T12:24:16.071Z,3.00
2022-07-25T12:26:44.223Z,3.10
2022-07-25T12:29:11.607Z,3.50
2022-07-25T12:31:38.945Z,2.83
2022-07-25T12:34:06.932Z,3.33
2022-07-25T12:36:41.238Z,3.05
2022-07-25T12:39:09.771Z,3.17
2022-07-25T12:41:37.341Z,3.42
2022-07-25T12:44:04.965Z,3.05
2022-07-25T12:46:32.804Z,3.00
2022-07-25T12:49:00.383Z,2.80
2022-07-25T12:51:27.867Z,2.30
2022-07-25T12:53:56.041Z,2.75
2022-07-25T12:56:23.662Z,2.50
2022-07-25T12:58:51.403Z,2.60
2022-07-25T13:01:25.812Z,2.30
2022-07-25T13:03:53.049Z,2.60
2022-07-25T13:06:20.948Z,3.40
2022-07-25T13:08:49.009Z,4.00
2022-07-25T13:11:16.194Z,3.53
2022-07-25T13:13:43.354Z,4.05
2022-07-25T13:16:10.718Z,3.10
2022-07-25T13:18:38.253Z,2.60
2022-07-25T13:21:05.785Z,3.60
2022-07-25T13:23:33.035Z,3.22
2022-07-25T13:26:00.687Z,3.15
2022-07-25T13:28:27.862Z,3.42
2022-07-25T13:30:56.834Z,2.50
2022-07-25T13:33:24.222Z,2.85
2022-07-25T13:35:52.085Z,2.70
2022-07-25T13:38:20.765Z,2.92
2022-07-25T13:40:47.934Z,2.28
2022-07-25T13:43:15.170Z,2.20
2022-07-25T13:45:42.826Z,1.90
2022-07-25T13:48:29.078Z,2.00
2022-07-25T13:50:58.308Z,1.92
2022-07-25T13:53:29.763Z,2.10
2022-07-25T13:56:00.124Z,1.60
2022-07-25T13:58:27.752Z,2.10
2022-07-25T14:00:55.123Z,2.00
2022-07-25T14:03:22.528Z,1.85
2022-07-25T14:05:49.644Z,2.00
2022-07-25T14:08:17.008Z,1.85
2022-07-25T14:10:44.870Z,2.20
2022-07-25T14:13:13.141Z,2.30
2022-07-25T14:15:40.103Z,2.00
2022-07-25T14:18:09.829Z,1.70
2022-07-25T14:20:37.110Z,1.70
2022-07-25T14:23:04.449Z,1.58
2022-07-25T14:25:34.163Z,2.00
2022-07-25T14:28:01.230Z,2.17
2022-07-25T14:30:28.222Z,1.80
2022-07-25T14:32:55.399Z,2.10
2022-07-25T14:35:22.447Z,2.00
2022-07-25T14:37:49.531Z,1.83
2022-07-25T14:40:16.960Z,1.90
2022-07-25T14:42:44.759Z,1.90
2022-07-25T14:45:12.737Z,2.10
2022-07-25T14:47:41.255Z,1.98
2022-07-25T14:50:08.553Z,1.70
2022-07-25T14:52:35.974Z,1.60
2022-07-25T14:55:03.372Z,1.60
2022-07-25T14:57:33.489Z,1.53
2022-07-25T15:00:03.876Z,1.80
2022-07-25T15:02:31.004Z,1.70
2022-07-25T15:04:58.135Z,1.50
2022-07-25T15:07:25.433Z,1.50
2022-07-25T15:09:52.435Z,1.90
2022-07-25T15:12:20.807Z,1.80
2022-07-25T15:14:48.571Z,1.80
2022-07-25T15:17:16.357Z,2.00
2022-07-25T15:19:43.939Z,2.27
2022-07-25T15:22:11.229Z,2.10
2022-07-25T15:25:04.346Z,2.13
2022-07-25T15:27:25.423Z,2.37
2022-07-25T15:29:52.399Z,2.17
2022-07-25T15:32:20.992Z,2.83
2022-07-25T15:34:49.073Z,2.33
2022-07-25T15:37:16.841Z,2.07
2022-07-25T15:39:45.377Z,2.00
2022-07-25T15:42:12.566Z,2.07
2022-07-25T15:44:39.722Z,2.10
2022-07-25T15:47:07.439Z,2.30
2022-07-25T15:49:35.129Z,1.63
2022-07-25T15:52:02.166Z,2.10
2022-07-25T15:54:29.606Z,2.00
2022-07-25T15:56:58.080Z,1.80
2022-07-25T15:59:25.119Z,1.70
2022-07-25T16:01:52.862Z,2.00
2022-07-25T16:04:19.989Z,2.00
2022-07-25T16:06:47.142Z,1.87
2022-07-25T16:09:16.112Z,1.40
2022-07-25T16:11:44.068Z,1.80
2022-07-25T16:14:11.269Z,1.80
2022-07-25T16:16:38.305Z,1.70
2022-07-25T16:19:07.119Z,1.90
2022-07-25T16:21:35.335Z,1.97
2022-07-25T16:24:02.328Z,1.80
2022-07-25T16:26:29.376Z,1.90
2022-07-25T16:28:57.814Z,1.73
2022-07-25T16:31:26.804Z,1.83
2022-07-25T16:33:54.108Z,2.43
2022-07-25T16:36:21.126Z,2.13
2022-07-25T16:38:49.226Z,3.30
2022-07-25T16:41:17.084Z,8.07
2022-07-25T16:43:44.167Z,3.17
2022-07-25T16:46:11.248Z,2.10
2022-07-25T16:48:38.398Z,2.00
2022-07-25T16:51:06.789Z,2.13
2022-07-25T16:53:35.648Z,1.90
2022-07-25T16:56:04.243Z,1.70
2022-07-25T16:58:31.393Z,2.23
2022-07-25T17:00:58.372Z,2.30
2022-07-25T17:03:26.119Z,1.93
2022-07-25T17:05:54.730Z,1.63
2022-07-25T17:08:21.740Z,1.97
2022-07-25T17:10:48.931Z,1.90
2022-07-25T17:13:16.906Z,2.07
2022-07-25T17:15:45.525Z,1.90
2022-07-25T17:18:14.131Z,1.87
2022-07-25T17:20:42.148Z,2.30
2022-07-25T17:23:11.233Z,2.20
2022-07-25T17:25:39.830Z,2.10
2022-07-25T17:28:07.838Z,2.20
2022-07-25T17:30:35.235Z,2.17
2022-07-25T17:33:03.162Z,1.90
2022-07-25T17:35:32.563Z,2.23
2022-07-25T17:38:00.121Z,2.10
2022-07-25T17:40:27.242Z,1.87
2022-07-25T17:42:54.217Z,1.97
2022-07-25T17:45:21.431Z,1.80
2022-07-25T17:47:49.123Z,2.00
2022-07-25T17:50:16.970Z,1.97
2022-07-25T17:52:44.142Z,2.33
2022-07-25T17:55:20.171Z,2.33
2022-07-25T17:57:49.105Z,1.73
2022-07-25T18:00:16.320Z,1.60
2022-07-25T18:02:43.547Z,1.70
2022-07-25T18:05:10.768Z,2.20
2022-07-25T18:07:40.874Z,2.20
2022-07-25T18:10:08.210Z,2.17
2022-07-25T18:12:35.792Z,2.30
2022-07-25T18:15:04.029Z,2.80
2022-07-25T18:17:32.863Z,2.20
2022-07-25T18:20:00.192Z,2.47
2022-07-25T18:22:27.345Z,2.30
2022-07-25T18:24:54.592Z,2.60
2022-07-25T18:27:22.039Z,2.00
2022-07-25T18:29:49.233Z,2.10
2022-07-25T18:32:16.349Z,2.30
2022-07-25T18:34:43.436Z,2.00
2022-07-25T18:37:10.864Z,2.10
2022-07-25T18:39:39.399Z,1.50
2022-07-25T18:42:06.539Z,1.90
2022-07-25T18:44:33.712Z,1.60
2022-07-25T18:47:01.472Z,1.70
2022-07-25T18:49:29.107Z,1.50
2022-07-25T18:51:56.258Z,1.30
2022-07-25T18:54:23.497Z,1.30
2022-07-25T18:56:50.464Z,1.40
2022-07-25T18:59:21.569Z,1.83
2022-07-25T19:01:51.223Z,2.37
2022-07-25T19:04:19.061Z,1.27
2022-07-25T19:06:46.876Z,1.70
2022-07-25T19:09:13.902Z,2.27
2022-07-25T19:11:42.355Z,2.73
2022-07-25T19:14:10.151Z,2.47
2022-07-25T19:16:40.207Z,2.00
2022-07-25T19:19:07.431Z,1.50
2022-07-25T19:21:34.440Z,1.87
2022-07-25T19:24:01.588Z,17.10
2022-07-25T19:26:28.953Z,4.60
2022-07-25T19:28:55.990Z,1.90
2022-07-25T19:31:23.257Z,2.07
2022-07-25T19:33:51.021Z,1.70
2022-07-25T19:36:20.013Z,1.50
2022-07-25T19:38:48.132Z,1.37
2022-07-25T19:41:15.707Z,1.53
2022-07-25T19:43:42.897Z,1.30
2022-07-25T19:46:10.150Z,1.50
2022-07-25T19:48:37.469Z,1.40
2022-07-25T19:51:12.184Z,1.60
2022-07-25T19:53:39.436Z,1.60
2022-07-25T19:56:08.560Z,1.20
2022-07-25T19:58:39.766Z,1.20
2022-07-25T20:01:10.974Z,1.50
2022-07-25T20:03:39.071Z,1.40
2022-07-25T20:06:08.581Z,1.17
2022-07-25T20:08:37.247Z,1.40
2022-07-25T20:11:04.250Z,1.60
2022-07-25T20:13:31.142Z,1.57
2022-07-25T20:15:58.771Z,1.63
2022-07-25T20:18:25.889Z,1.60
2022-07-25T20:20:53.978Z,1.43
2022-07-25T20:23:23.198Z,1.30
2022-07-25T20:25:50.490Z,1.23
2022-07-25T20:28:18.854Z,1.37
2022-07-25T20:30:46.012Z,1.70
2022-07-25T20:33:13.119Z,1.13
2022-07-25T20:35:40.414Z,1.00
2022-07-25T20:38:09.109Z,1.20
2022-07-25T20:40:48.181Z,1.17
2022-07-25T20:43:21.596Z,1.30
2022-07-25T20:45:48.821Z,1.10
2022-07-25T20:48:16.012Z,1.10
2022-07-25T20:50:44.595Z,1.23
2022-07-25T20:53:12.079Z,1.03
2022-07-25T20:55:39.283Z,1.40
2022-07-25T20:58:08.178Z,0.90
2022-07-25T21:00:35.130Z,1.17
2022-07-25T21:03:02.238Z,1.10
2022-07-25T21:08:24.357Z,1.20
2022-07-25T21:10:51.453Z,1.17
2022-07-25T21:13:18.639Z,1.10
2022-07-25T21:15:45.805Z,1.13
2022-07-25T21:18:14.272Z,1.00
2022-07-25T21:20:41.294Z,1.10
2022-07-25T21:23:08.781Z,2.20
2022-07-25T21:25:35.826Z,1.80
2022-07-25T21:28:02.908Z,1.30
2022-07-25T21:30:31.796Z,1.10
2022-07-25T21:32:58.743Z,1.03
2022-07-25T21:35:25.663Z,0.93
2022-07-25T21:37:52.635Z,0.93
2022-07-25T21:40:19.539Z,0.80
2022-07-25T21:42:46.820Z,1.10
2022-07-25T21:45:13.882Z,0.90
2022-07-25T21:47:41.236Z,0.73
2022-07-25T21:50:27.208Z,1.00
2022-07-25T21:53:00.531Z,1.00
2022-07-25T21:55:29.984Z,0.90
2022-07-25T21:57:59.190Z,0.90
2022-07-25T22:00:33.517Z,0.80
2022-07-25T22:03:01.363Z,0.70
2022-07-25T22:05:28.440Z,1.23
2022-07-25T22:07:55.662Z,0.90
2022-07-25T22:10:22.924Z,0.73
2022-07-25T22:12:50.192Z,0.73
2022-07-25T22:15:17.301Z,0.90
2022-07-25T22:17:48.625Z,0.70
2022-07-25T22:20:19.314Z,0.90
2022-07-25T22:22:48.000Z,0.90
2022-07-25T22:25:16.249Z,0.87
2022-07-25T22:27:45.196Z,0.70
2022-07-25T22:30:18.299Z,0.93
2022-07-25T22:32:48.846Z,1.07
2022-07-25T22:35:18.008Z,1.00
2022-07-25T22:37:45.893Z,0.80
2022-07-25T22:40:13.060Z,1.00
2022-07-25T22:42:40.242Z,0.93
2022-07-25T22:45:08.292Z,0.87
2022-07-25T22:47:35.437Z,0.97
2022-07-25T22:50:02.364Z,0.90
2022-07-25T22:52:29.395Z,1.07
2022-07-25T22:54:56.379Z,0.77
2022-07-25T22:57:24.237Z,0.80
2022-07-25T22:59:51.225Z,1.03
2022-07-25T23:02:18.429Z,1.00
2022-07-25T23:04:45.482Z,0.90
2022-07-25T23:07:12.517Z,1.13
2022-07-25T23:09:39.630Z,0.87
2022-07-25T23:12:07.026Z,0.97
2022-07-25T23:14:34.059Z,0.93
2022-07-25T23:17:19.659Z,0.70
2022-07-25T23:19:48.938Z,0.80
2022-07-25T23:22:16.928Z,0.90
2022-07-25T23:24:45.091Z,0.70
2022-07-25T23:27:12.431Z,0.70
2022-07-25T23:29:40.297Z,0.80
2022-07-25T23:32:07.656Z,0.87
2022-07-25T23:34:35.861Z,0.83
2022-07-25T23:37:04.216Z,1.00
2022-07-25T23:39:32.297Z,0.70
2022-07-25T23:42:02.880Z,0.90
2022-07-25T23:44:30.206Z,0.80
2022-07-25T23:46:59.966Z,1.07
2022-07-25T23:49:28.883Z,0.90
2022-07-25T23:51:58.986Z,0.80
2022-07-25T23:54:26.277Z,0.87
2022-07-25T23:56:53.393Z,1.03
2022-07-25T23:59:20.749Z,0.90
